Mullica Hill, NJ (08062)

11:55 PM EDT on April 25, 2017 (GMT -0400)
South Harrison | | Change Station

Elev 145 ft 39.68 °N, 75.22 °W | Updated 16 seconds ago

Rain
Rain
54.3 °F
Feels Like 54.3 °F
N
2.7
Wind Variable Wind from NE
Gusts 2.7 mph

Today
High -- | Low -- °F
--% Chance of Precip.
Yesterday
High -- | Low -- °F
Precip. -- in
Pressure 29.75 in
Visibility 6.0 miles
Clouds Overcast 600 ft
Dew Point 54 °F
Humidity 99%
Rainfall 0.64 in
Snow Depth Not available.
6:08 AM 7:49 PM
Waning Crescent, 0% visible
SPECI KPHL 260327Z 03017G22KT 6SM -RA BR OVC006 13/12 A2975 RMK AO2 RAB23 P0000 T01330122 $
Pressure 29.75 in
Visibility 6.0 miles
Clouds Overcast 600 ft
Dew Point 54 °F
Humidity 99%
Rainfall 0.64 in
Snow Depth Not available.
6:08 AM 7:49 PM
Waning Crescent, 0% visible
SPECI KPHL 260327Z 03017G22KT 6SM -RA BR OVC006 13/12 A2975 RMK AO2 RAB23 P0000 T01330122 $

Get Severe Weather Alerts

Thanks for signing up!

Be on the lookout for a verification email in your inbox.

You'll start receiving the daily forecast at 8 AM.

×

10-Day Weather Forecast

Almanac

Astronomy

Apr. 25, 2017 Rise Set
Actual Time
Civil Twilight
Nautical Twilight
Astronomical Twilight
Moon
Length of Visible Light
Length of Day
Tomorrow will be .
, % of the Moon is Illuminated

Today's Extremes

State Highs State Lows

Community

WunderPhotos

WunderBlog® & News

Nearby

Air Quality

  Air Quality AQ Index Pollutant
Not available.

Snow Depth

Station Depth Elevation

Earthquake Activity

City Distance Mag. Time & Date
Minimum magnitude displayed is 2.5.

Coastal Water Temperatures

Place Temperature

Stations

Nearby Weather Stations

Station Location Temp. Windchill Dew Point Humidity Wind Precip. Elev Updated Type
                   

Watches & Warnings

There are currently no watches in effect.